Time;durP1;ratioP1;P1;durP2;ratioP2;P2;SDS_P1;SDS_P2;PMS_P1;PMS_P2;Temp;Humidity;BMP_temperature;BMP_pressure;BME280_temperature;BME280_humidity;BME280_pressure;Samples;Min_cycle;Max_cycle;Signal;HPM_P1;HPM_P2
2021/12/28 00:02:14;;;;;;;24.80;10.45;;;;;;;5.70;100.00;99471.88;5052856;28;20029;-81
2021/12/28 00:04:43;;;;;;;28.13;10.95;;;;;;;5.67;100.00;99464.38;5052801;28;20032;-87
2021/12/28 00:07:08;;;;;;;27.67;10.80;;;;;;;5.67;100.00;99474.63;5052867;28;20444;-80
2021/12/28 00:09:33;;;;;;;22.52;9.73;;;;;;;5.64;100.00;99474.84;5052698;28;20035;-79
2021/12/28 00:11:59;;;;;;;26.63;10.57;;;;;;;5.62;100.00;99474.13;5052619;28;20041;-82
2021/12/28 00:14:33;;;;;;;30.70;9.80;;;;;;;5.64;100.00;99470.53;5052567;28;20032;-78
2021/12/28 00:19:42;;;;;;;29.67;9.52;;;;;;;5.63;100.00;99474.03;5052691;28;20040;-87
2021/12/28 00:22:08;;;;;;;27.33;9.55;;;;;;;5.52;100.00;99457.72;5052585;28;20681;-75
2021/12/28 00:24:35;;;;;;;23.98;8.90;;;;;;;5.60;100.00;99473.38;5052160;28;20108;-82
2021/12/28 00:27:01;;;;;;;25.98;9.07;;;;;;;5.61;100.00;99477.59;5052456;28;20021;-74
2021/12/28 00:29:26;;;;;;;31.55;9.98;;;;;;;5.43;100.00;99446.31;5052545;28;20029;-77
2021/12/28 00:31:51;;;;;;;28.08;9.40;;;;;;;5.42;100.00;99442.13;5052416;28;20028;-79
2021/12/28 00:34:17;;;;;;;24.52;9.23;;;;;;;5.53;100.00;99464.47;5052508;28;20036;-81
2021/12/28 00:36:42;;;;;;;26.77;9.95;;;;;;;5.53;100.00;99469.59;5052451;28;20029;-77
2021/12/28 00:39:07;;;;;;;24.75;8.73;;;;;;;5.52;100.00;99467.94;5052388;28;20025;-83
2021/12/28 00:41:33;;;;;;;29.08;9.20;;;;;;;5.27;100.00;99428.53;5052167;28;20021;-82
2021/12/28 00:43:58;;;;;;;28.33;9.23;;;;;;;5.40;100.00;99464.41;5052454;28;20040;-76
2021/12/28 00:46:23;;;;;;;29.95;9.13;;;;;;;5.38;100.00;99456.00;5052451;28;20468;-83
2021/12/28 00:48:49;;;;;;;25.23;8.65;;;;;;;5.33;100.00;99458.06;5052342;28;20025;-89
2021/12/28 00:51:14;;;;;;;28.20;8.82;;;;;;;5.15;100.00;99437.00;5052410;28;20028;-89
2021/12/28 00:53:40;;;;;;;25.08;9.18;;;;;;;5.27;100.00;99451.56;5052282;28;20017;-86
2021/12/28 00:56:06;;;;;;;23.98;9.18;;;;;;;5.23;100.00;99442.47;5052404;28;20028;-84
2021/12/28 00:58:32;;;;;;;30.23;9.02;;;;;;;5.01;100.00;99407.13;5052487;28;20025;-79
2021/12/28 01:00:58;;;;;;;30.10;9.20;;;;;;;5.27;100.00;99443.91;5052145;28;20034;-76
2021/12/28 01:03:23;;;;;;;25.65;9.57;;;;;;;5.26;100.00;99446.56;5052130;28;20108;-77
2021/12/28 01:05:49;;;;;;;34.10;10.77;;;;;;;5.28;100.00;99445.53;5052520;28;20040;-82
2021/12/28 01:08:15;;;;;;;31.50;11.05;;;;;;;5.34;100.00;99444.34;5052312;28;20087;-83
2021/12/28 01:10:51;;;;;;;23.15;8.93;;;;;;;5.40;100.00;99433.69;5055960;28;20025;-78
2021/12/28 01:13:18;;;;;;;31.80;10.07;;;;;;;5.38;100.00;99418.44;5055921;28;20048;-75
2021/12/28 01:15:43;;;;;;;37.17;11.82;;;;;;;5.58;100.00;99426.56;5056041;28;20063;-82
2021/12/28 01:18:10;;;;;;;36.03;10.90;;;;;;;5.64;100.00;99421.06;5056065;28;20065;-82
2021/12/28 01:20:36;;;;;;;29.73;11.15;;;;;;;5.60;100.00;99412.75;5056140;28;20017;-76
2021/12/28 01:23:01;;;;;;;28.27;9.55;;;;;;;5.71;100.00;99427.44;5055828;28;20112;-85
2021/12/28 01:25:27;;;;;;;32.35;8.98;;;;;;;5.61;100.00;99414.41;5055651;28;20060;-77
2021/12/28 01:27:53;;;;;;;27.65;9.10;;;;;;;5.42;100.00;99401.16;5055756;28;20061;-89
2021/12/28 01:30:20;;;;;;;26.95;8.70;;;;;;;5.37;100.00;99401.44;5055842;28;20087;-78
2021/12/28 01:32:46;;;;;;;27.77;9.07;;;;;;;5.47;100.00;99427.25;5055580;28;20021;-81
2021/12/28 01:35:14;;;;;;;29.10;9.40;;;;;;;5.41;100.00;99425.13;5055929;28;20033;-79
2021/12/28 01:37:40;;;;;;;31.55;8.65;;;;;;;5.20;100.00;99409.34;5055705;28;20419;-76
2021/12/28 01:40:08;;;;;;;24.77;8.13;;;;;;;5.25;100.00;99420.13;5055608;28;20053;-77
2021/12/28 01:42:53;;;;;;;27.80;8.45;;;;;;;5.23;100.00;99421.16;5055287;28;20104;-76
2021/12/28 01:45:18;;;;;;;28.10;8.23;;;;;;;4.74;100.00;99352.63;5055555;28;20396;-80
2021/12/28 01:47:43;;;;;;;33.38;8.23;;;;;;;4.92;100.00;99391.53;5055508;28;20028;-76
2021/12/28 01:50:09;;;;;;;28.15;8.45;;;;;;;5.00;100.00;99412.34;5055474;28;20072;-76
2021/12/28 01:52:34;;;;;;;23.15;7.78;;;;;;;5.06;100.00;99420.47;5055338;28;20052;-76
2021/12/28 01:55:00;;;;;;;28.33;8.52;;;;;;;5.11;100.00;99425.28;5054991;28;20057;-79
2021/12/28 01:57:25;;;;;;;26.63;7.97;;;;;;;5.17;100.00;99423.19;5055516;28;20075;-81
2021/12/28 01:59:51;;;;;;;28.80;9.38;;;;;;;5.19;100.00;99418.78;5054988;28;20482;-90
2021/12/28 02:02:16;;;;;;;30.48;8.93;;;;;;;5.11;100.00;99404.81;5055180;28;20037;-84
2021/12/28 02:04:49;;;;;;;30.13;8.65;;;;;;;5.06;100.00;99407.69;5055186;28;20048;-83
2021/12/28 02:07:14;;;;;;;29.08;8.70;;;;;;;5.11;100.00;99418.47;5055055;28;20039;-79
2021/12/28 02:09:40;;;;;;;30.45;9.00;;;;;;;5.11;100.00;99415.06;5055000;28;20112;-83
2021/12/28 02:12:06;;;;;;;34.90;8.55;;;;;;;5.08;100.00;99423.75;5054886;28;20370;-89
2021/12/28 02:14:32;;;;;;;31.75;9.38;;;;;;;4.76;100.00;99366.94;5054929;28;20025;-79
2021/12/28 02:16:57;;;;;;;33.78;9.32;;;;;;;5.05;100.00;99400.09;5054919;28;20064;-81
2021/12/28 02:19:22;;;;;;;31.75;8.68;;;;;;;4.88;100.00;99367.91;5054942;28;20465;-78
2021/12/28 02:21:48;;;;;;;32.08;8.52;;;;;;;4.85;100.00;99347.66;5053913;28;20045;-81
2021/12/28 02:24:13;;;;;;;42.67;9.65;;;;;;;5.30;100.00;99405.28;5054830;28;20025;-83
2021/12/28 02:26:39;;;;;;;27.48;8.90;;;;;;;5.19;100.00;99384.69;5054523;28;20045;-75
2021/12/28 02:29:05;;;;;;;31.60;8.90;;;;;;;5.43;100.00;99410.47;5054548;28;20014;-78
2021/12/28 02:31:31;;;;;;;32.40;9.15;;;;;;;5.29;100.00;99374.69;5054651;28;20036;-81
2021/12/28 02:33:57;;;;;;;31.77;9.07;;;;;;;5.50;100.00;99408.31;5054934;28;20369;-79
2021/12/28 02:36:22;;;;;;;36.65;9.88;;;;;;;5.40;100.00;99378.19;5054639;28;20032;-75
2021/12/28 02:38:48;;;;;;;33.85;9.23;;;;;;;5.51;100.00;99389.50;5054516;28;20119;-82
2021/12/28 02:41:14;;;;;;;36.40;10.02;;;;;;;5.44;100.00;99371.97;5054193;28;20457;-89
2021/12/28 02:43:45;;;;;;;35.80;9.13;;;;;;;5.66;100.00;99399.53;5054483;28;20051;-86
2021/12/28 02:46:11;;;;;;;30.15;9.85;;;;;;;5.72;100.00;99396.59;5054437;28;20108;-89
2021/12/28 02:48:37;;;;;;;35.60;10.15;;;;;;;5.76;100.00;99389.53;5054470;28;20104;-89
2021/12/28 02:51:06;;;;;;;35.45;9.82;;;;;;;5.78;100.00;99384.28;5054387;28;20030;-81
2021/12/28 02:53:31;;;;;;;32.25;9.38;;;;;;;5.80;100.00;99380.72;5054440;28;20032;-88
2021/12/28 02:55:57;;;;;;;37.00;8.82;;;;;;;5.75;100.00;99355.41;5053929;28;20029;-92
2021/12/28 02:58:30;;;;;;;36.38;9.82;;;;;;;5.85;100.00;99360.72;5054533;28;20360;-89
2021/12/28 03:01:06;;;;;;;31.73;9.25;;;;;;;5.88;100.00;99363.09;5054179;28;20643;-82
2021/12/28 03:03:33;;;;;;;41.60;9.05;;;;;;;5.83;100.00;99364.31;5054221;28;20569;-86
2021/12/28 03:06:02;;;;;;;29.13;8.15;;;;;;;5.78;100.00;99353.56;5054002;28;20020;-81
2021/12/28 03:08:30;;;;;;;37.17;8.98;;;;;;;5.89;100.00;99367.28;5053731;28;20587;-79
2021/12/28 03:10:57;;;;;;;31.63;8.27;;;;;;;5.94;100.00;99362.72;5053797;28;20530;-80
2021/12/28 03:13:29;;;;;;;27.60;8.85;;;;;;;5.88;100.00;99346.88;5053551;28;20076;-75
2021/12/28 03:15:55;;;;;;;36.47;9.05;;;;;;;6.02;100.00;99357.91;5054000;28;20040;-88
2021/12/28 03:18:21;;;;;;;28.33;7.78;;;;;;;6.06;100.00;99357.69;5053617;28;20021;-78
2021/12/28 03:20:46;;;;;;;34.35;9.00;;;;;;;6.03;100.00;99345.91;5053732;28;20036;-79
2021/12/28 03:23:21;;;;;;;31.25;7.95;;;;;;;6.02;100.00;99347.66;5053752;28;20025;-77
2021/12/28 03:25:46;;;;;;;33.53;8.90;;;;;;;6.07;100.00;99347.31;5053199;28;20032;-81
2021/12/28 03:28:22;;;;;;;33.60;7.80;;;;;;;6.01;100.00;99350.31;5053700;28;20027;-81
2021/12/28 03:30:49;;;;;;;32.50;7.18;;;;;;;5.89;100.00;99328.84;5053552;28;20139;-77
2021/12/28 03:33:15;;;;;;;37.53;7.90;;;;;;;5.79;100.00;99314.22;5053330;28;20029;-80
2021/12/28 03:35:41;;;;;;;36.95;8.98;;;;;;;5.90;100.00;99340.78;5053461;28;20100;-80
2021/12/28 03:38:06;;;;;;;37.80;7.70;;;;;;;5.84;100.00;99338.59;5053222;28;20495;-84
2021/12/28 03:40:33;;;;;;;35.22;7.28;;;;;;;5.68;100.00;99320.06;5034957;28;20064;-84
2021/12/28 03:42:58;;;;;;;33.72;7.68;;;;;;;5.67;100.00;99332.03;5053220;28;20088;-77
2021/12/28 03:45:24;;;;;;;37.08;8.30;;;;;;;5.43;100.00;99285.84;5053302;28;20041;-81
2021/12/28 03:47:49;;;;;;;30.55;8.23;;;;;;;5.55;100.00;99293.63;5053147;28;20021;-85
2021/12/28 03:50:14;;;;;;;33.72;8.27;;;;;;;5.62;100.00;99295.69;5053039;28;20080;-82
2021/12/28 03:52:41;;;;;;;36.13;8.10;;;;;;;5.83;100.00;99306.22;5053006;28;20088;-84
2021/12/28 03:55:07;;;;;;;34.60;9.20;;;;;;;5.79;100.00;99296.28;5053206;28;20060;-81
2021/12/28 03:57:33;;;;;;;38.92;8.10;;;;;;;5.98;100.00;99309.50;5052923;28;20079;-83
2021/12/28 03:59:59;;;;;;;35.20;7.72;;;;;;;6.03;100.00;99304.91;5034849;28;20427;-80
2021/12/28 04:02:24;;;;;;;37.15;7.50;;;;;;;6.10;100.00;99308.69;5052979;28;20028;-87
2021/12/28 04:04:49;;;;;;;42.17;8.00;;;;;;;6.16;100.00;99313.38;5053096;28;20025;-90
2021/12/28 04:07:19;;;;;;;31.05;6.95;;;;;;;6.10;100.00;99292.50;5052826;28;20033;-87
2021/12/28 04:10:08;;;;;;;38.97;8.07;;;;;;;6.28;100.00;99317.66;5053046;28;20477;-89
2021/12/28 04:12:31;;;;;;;38.15;6.90;;;;;;;6.21;100.00;99297.69;5052087;28;20048;-88
2021/12/28 04:14:57;;;;;;;30.90;7.35;;;;;;;6.21;100.00;99295.94;5052751;28;20041;-87
2021/12/28 04:17:25;;;;;;;33.15;8.30;;;;;;;6.41;100.00;99317.63;5052776;28;20045;-76
2021/12/28 04:19:50;;;;;;;36.75;7.78;;;;;;;6.31;100.00;99291.81;5052500;28;20024;-90
2021/12/28 04:22:16;;;;;;;36.38;6.55;;;;;;;6.40;100.00;99290.38;5052970;28;20029;-84
2021/12/28 04:24:42;;;;;;;33.28;6.57;;;;;;;6.51;100.00;99305.81;5052921;28;20028;-76
2021/12/28 04:27:07;;;;;;;35.40;6.70;;;;;;;6.56;100.00;99297.78;5034753;28;20391;-92
2021/12/28 04:29:33;;;;;;;34.45;5.90;;;;;;;6.58;100.00;99303.59;5052714;28;20029;-78
2021/12/28 04:31:58;;;;;;;30.10;6.07;;;;;;;6.59;100.00;99306.09;5052876;28;20373;-84
2021/12/28 04:34:24;;;;;;;35.13;6.13;;;;;;;6.63;100.00;99303.31;5052517;28;20460;-78
2021/12/28 04:36:50;;;;;;;31.48;6.60;;;;;;;6.66;100.00;99300.50;5052374;28;20120;-80
2021/12/28 04:39:16;;;;;;;36.22;6.35;;;;;;;6.68;100.00;99306.34;5052665;28;20104;-79
2021/12/28 04:41:41;;;;;;;31.05;6.55;;;;;;;6.70;100.00;99305.31;5052319;28;20021;-84
2021/12/28 04:44:09;;;;;;;26.65;5.82;;;;;;;6.71;100.00;99314.66;5053904;28;20040;-90
2021/12/28 04:46:34;;;;;;;35.20;6.57;;;;;;;6.53;100.00;99286.00;5056689;28;20048;-79
2021/12/28 04:48:59;;;;;;;33.75;7.75;;;;;;;6.76;100.00;99314.31;5056449;28;20459;-90
2021/12/28 04:51:25;;;;;;;27.13;6.25;;;;;;;6.77;100.00;99311.63;5056492;28;20056;-83
2021/12/28 04:53:53;;;;;;;25.63;5.72;;;;;;;6.67;100.00;99297.00;5056366;28;20108;-80
2021/12/28 04:56:19;;;;;;;33.00;5.68;;;;;;;6.68;100.00;99293.50;5056642;28;20040;-75
2021/12/28 04:58:44;;;;;;;28.65;5.22;;;;;;;6.76;100.00;99298.91;5056242;28;20017;-75
2021/12/28 05:01:10;;;;;;;27.83;6.15;;;;;;;6.70;100.00;99289.94;5056396;28;20053;-83
2021/12/28 05:03:35;;;;;;;23.33;5.47;;;;;;;6.83;100.00;99313.78;5056149;28;20457;-81
2021/12/28 05:06:00;;;;;;;25.00;5.10;;;;;;;6.77;100.00;99293.69;5056237;28;20031;-84
2021/12/28 05:08:26;;;;;;;28.90;5.70;;;;;;;6.89;100.00;99303.09;5056087;28;20025;-77
2021/12/28 05:10:52;;;;;;;29.45;5.32;;;;;;;6.90;100.00;99302.16;5056420;28;20407;-78
2021/12/28 05:13:18;;;;;;;28.50;4.55;;;;;;;6.90;100.00;99299.59;5054501;28;20107;-80
2021/12/28 05:15:45;;;;;;;23.90;4.72;;;;;;;6.80;100.00;99278.09;5056232;28;20032;-75
2021/12/28 05:18:12;;;;;;;20.70;4.85;;;;;;;6.92;100.00;99294.34;5056184;28;20379;-84
2021/12/28 05:20:38;;;;;;;20.40;5.40;;;;;;;6.94;100.00;99287.34;5056000;28;20112;-80
2021/12/28 05:23:03;;;;;;;27.63;5.13;;;;;;;6.90;100.00;99278.25;5055723;28;20039;-76
2021/12/28 05:25:29;;;;;;;26.58;4.63;;;;;;;6.98;100.00;99286.22;5056077;28;20064;-82
2021/12/28 05:27:54;;;;;;;17.42;3.90;;;;;;;6.99;100.00;99282.72;5055682;28;20047;-87
2021/12/28 05:30:20;;;;;;;23.98;5.00;;;;;;;6.84;100.00;99255.56;5055739;28;20029;-79
2021/12/28 05:32:45;;;;;;;21.92;4.45;;;;;;;6.96;100.00;99270.06;5055817;28;20021;-79
2021/12/28 05:35:11;;;;;;;24.05;5.75;;;;;;;7.05;100.00;99268.59;5055864;28;20025;-80
2021/12/28 05:37:37;;;;;;;21.48;5.10;;;;;;;7.06;100.00;99273.59;5055574;28;20024;-81
2021/12/28 05:40:07;;;;;;;24.40;4.78;;;;;;;6.95;100.00;99250.47;5055862;28;20366;-77
2021/12/28 05:42:33;;;;;;;25.80;4.10;;;;;;;7.02;100.00;99256.00;5055332;28;20469;-85
2021/12/28 05:44:58;;;;;;;20.73;4.72;;;;;;;6.96;100.00;99246.16;5055422;28;20029;-84
2021/12/28 05:47:23;;;;;;;22.23;4.82;;;;;;;7.12;100.00;99264.66;5055482;28;20032;-80
2021/12/28 05:49:49;;;;;;;23.38;4.40;;;;;;;7.12;100.00;99256.94;5055498;28;20465;-80
2021/12/28 05:52:14;;;;;;;22.13;4.35;;;;;;;7.06;100.00;99255.63;5055514;28;20032;-92
2021/12/28 05:54:40;;;;;;;19.58;4.72;;;;;;;7.13;100.00;99258.59;5055082;28;20040;-81
2021/12/28 05:57:07;;;;;;;17.75;4.25;;;;;;;6.93;100.00;99219.00;5054448;28;20086;-79
2021/12/28 05:59:33;;;;;;;17.67;4.38;;;;;;;7.14;100.00;99243.06;5054898;28;20029;-87
2021/12/28 06:01:58;;;;;;;17.88;4.50;;;;;;;7.15;100.00;99243.88;5055360;28;20033;-79
2021/12/28 06:04:23;;;;;;;24.85;4.25;;;;;;;6.96;100.00;99211.06;5055243;28;20029;-84
2021/12/28 06:06:49;;;;;;;19.73;4.30;;;;;;;7.17;100.00;99247.97;5055075;28;20033;-83
2021/12/28 06:09:14;;;;;;;19.00;4.05;;;;;;;7.19;100.00;99246.13;5055091;28;20049;-87
2021/12/28 06:11:40;;;;;;;19.70;4.00;;;;;;;7.22;100.00;99246.81;5055327;28;20025;-76
2021/12/28 06:14:05;;;;;;;16.17;3.80;;;;;;;7.26;100.00;99246.47;5054695;28;20049;-87
2021/12/28 06:16:32;;;;;;;16.88;3.60;;;;;;;7.27;100.00;99247.28;5054984;28;20642;-80
2021/12/28 06:18:57;;;;;;;17.98;3.65;;;;;;;7.29;100.00;99242.88;5055028;28;20051;-89
2021/12/28 06:21:24;;;;;;;19.65;3.38;;;;;;;7.31;100.00;99241.00;5054799;28;20025;-85
2021/12/28 06:23:49;;;;;;;12.55;3.33;;;;;;;7.30;100.00;99237.63;5054823;28;20087;-80
2021/12/28 06:26:15;;;;;;;13.55;3.55;;;;;;;7.30;100.00;99231.66;5054907;28;20032;-84
2021/12/28 06:28:40;;;;;;;16.80;3.38;;;;;;;7.30;100.00;99231.66;5054652;28;20031;-81
2021/12/28 06:31:05;;;;;;;15.13;3.13;;;;;;;7.26;100.00;99223.34;5036192;28;20124;-79
2021/12/28 06:33:31;;;;;;;14.70;3.60;;;;;;;7.32;100.00;99227.22;5054699;28;20056;-79
2021/12/28 06:35:56;;;;;;;15.55;4.07;;;;;;;7.31;100.00;99217.91;5054707;28;20052;-76
2021/12/28 06:38:22;;;;;;;18.45;4.15;;;;;;;7.04;100.00;99174.56;5054574;28;20021;-77
2021/12/28 06:40:48;;;;;;;17.17;3.40;;;;;;;7.30;100.00;99209.38;5054256;28;20029;-81
2021/12/28 06:43:13;;;;;;;16.50;3.17;;;;;;;7.14;100.00;99186.59;5054258;28;20117;-77
2021/12/28 06:45:38;;;;;;;15.23;3.20;;;;;;;7.24;100.00;99214.16;5054435;28;20132;-76
2021/12/28 06:48:04;;;;;;;19.45;3.70;;;;;;;7.09;100.00;99198.97;5054410;28;20024;-78
2021/12/28 06:50:30;;;;;;;16.17;3.25;;;;;;;7.12;100.00;99195.34;5054249;28;20128;-79
2021/12/28 06:52:55;;;;;;;13.68;4.00;;;;;;;7.19;100.00;99209.38;5054248;28;20033;-87
2021/12/28 06:55:21;;;;;;;13.23;3.47;;;;;;;7.19;100.00;99210.19;5054245;28;20025;-76
2021/12/28 06:57:46;;;;;;;18.90;3.72;;;;;;;7.19;100.00;99223.03;5054353;28;20461;-82
2021/12/28 07:00:16;;;;;;;17.67;3.55;;;;;;;7.22;100.00;99216.84;5054864;28;20032;-81
2021/12/28 07:02:42;;;;;;;16.30;2.88;;;;;;;7.24;100.00;99219.28;5055027;28;20025;-76
2021/12/28 07:05:08;;;;;;;14.45;3.90;;;;;;;7.17;100.00;99193.25;5036195;28;20578;-82
2021/12/28 07:07:34;;;;;;;12.93;3.08;;;;;;;7.26;100.00;99205.38;5053528;28;20032;-88
2021/12/28 07:09:59;;;;;;;12.85;2.88;;;;;;;7.28;100.00;99203.53;5053739;28;20024;-86
2021/12/28 07:12:25;;;;;;;13.35;3.20;;;;;;;7.23;100.00;99202.25;5053828;28;20045;-91
2021/12/28 07:14:50;;;;;;;11.15;2.97;;;;;;;7.12;100.00;99178.19;5053827;28;20098;-77
2021/12/28 07:17:16;;;;;;;16.98;3.08;;;;;;;7.31;100.00;99207.63;5053959;28;20068;-83
2021/12/28 07:19:41;;;;;;;11.57;2.60;;;;;;;7.31;100.00;99199.91;5053974;28;20044;-86
2021/12/28 07:22:06;;;;;;;14.82;3.22;;;;;;;7.37;100.00;99207.16;5053875;28;20491;-85
2021/12/28 07:24:35;;;;;;;13.52;3.35;;;;;;;7.38;100.00;99209.63;5053982;28;20021;-82
2021/12/28 07:27:00;;;;;;;12.93;2.60;;;;;;;7.41;100.00;99206.00;5053703;28;20029;-90
2021/12/28 07:29:25;;;;;;;10.07;2.40;;;;;;;7.42;100.00;99205.88;5053472;28;20033;-92
2021/12/28 07:31:51;;;;;;;9.48;3.22;;;;;;;7.44;100.00;99216.03;5053552;28;20025;-87
2021/12/28 07:34:17;;;;;;;10.93;3.20;;;;;;;7.45;100.00;99212.53;5053658;28;20033;-81
2021/12/28 07:36:42;;;;;;;11.30;2.70;;;;;;;7.40;100.00;99192.34;5053923;28;20064;-84
2021/12/28 07:39:08;;;;;;;11.30;2.50;;;;;;;7.42;100.00;99187.91;5053954;28;20064;-86
2021/12/28 07:41:33;;;;;;;15.75;3.58;;;;;;;7.51;100.00;99195.84;5053251;28;20025;-87
2021/12/28 07:43:59;;;;;;;13.75;3.00;;;;;;;7.51;100.00;99195.84;5053272;28;20097;-84
2021/12/28 07:46:25;;;;;;;13.00;2.80;;;;;;;7.50;100.00;99204.50;5052137;28;20472;-82
2021/12/28 07:48:50;;;;;;;14.38;3.25;;;;;;;7.50;100.00;99204.50;5053731;28;20059;-80
2021/12/28 07:51:16;;;;;;;9.23;2.72;;;;;;;7.48;100.00;99202.84;5053746;28;20047;-85
2021/12/28 07:53:41;;;;;;;11.93;2.58;;;;;;;7.21;100.00;99148.44;5053199;28;20025;-85
2021/12/28 07:56:06;;;;;;;10.80;2.80;;;;;;;7.26;100.00;99160.94;5053180;28;20033;-78
2021/12/28 07:58:32;;;;;;;10.90;2.78;;;;;;;7.48;100.00;99194.34;5052998;28;20033;-85
2021/12/28 08:00:58;;;;;;;9.52;2.70;;;;;;;7.52;100.00;99206.00;5052860;28;20025;-84
2021/12/28 08:03:24;;;;;;;8.73;2.95;;;;;;;7.54;100.00;99200.75;5052856;28;20024;-75
2021/12/28 08:05:51;;;;;;;8.40;2.67;;;;;;;7.53;100.00;99183.69;5052793;28;20044;-84
2021/12/28 08:08:16;;;;;;;9.38;2.75;;;;;;;7.54;100.00;99188.72;5053048;28;20028;-85
2021/12/28 08:10:43;;;;;;;8.35;2.90;;;;;;;7.63;100.00;99189.75;5053022;28;20033;-84
2021/12/28 08:13:09;;;;;;;10.02;2.85;;;;;;;7.66;100.00;99189.50;5052642;28;20049;-77
2021/12/28 08:15:34;;;;;;;10.55;3.03;;;;;;;7.55;100.00;99168.97;5034210;28;20553;-79
2021/12/28 08:18:03;;;;;;;11.48;3.97;;;;;;;7.71;100.00;99190.81;5052593;28;20032;-81
2021/12/28 08:20:28;;;;;;;9.75;3.33;;;;;;;7.74;100.00;99188.00;5052429;28;20036;-88
2021/12/28 08:22:54;;;;;;;10.60;4.03;;;;;;;7.73;100.00;99181.22;5052798;28;20029;-79
2021/12/28 08:25:20;;;;;;;12.55;4.15;;;;;;;7.75;100.00;99181.09;5052802;28;20028;-90
2021/12/28 08:27:46;;;;;;;9.88;3.85;;;;;;;7.80;100.00;99196.19;5053179;28;20044;-91
2021/12/28 08:30:12;;;;;;;11.55;4.22;;;;;;;7.81;100.00;99190.09;5053478;28;20413;-90
2021/12/28 08:32:38;;;;;;;9.70;4.25;;;;;;;7.65;100.00;99157.88;5053843;28;20058;-89
2021/12/28 08:35:06;;;;;;;10.90;4.05;;;;;;;7.82;100.00;99189.97;5053676;28;20017;-88
2021/12/28 08:37:32;;;;;;;7.82;4.05;;;;;;;7.81;100.00;99170.34;5053282;28;20373;-92
2021/12/28 08:39:58;;;;;;;10.05;4.60;;;;;;;7.75;100.00;99152.84;5056967;28;20025;-90
2021/12/28 08:42:23;;;;;;;11.18;5.00;;;;;;;7.74;100.00;99149.44;5056240;28;20029;-74
2021/12/28 08:44:50;;;;;;;10.98;4.55;;;;;;;7.78;100.00;99157.75;5056068;28;20111;-78
2021/12/28 08:47:15;;;;;;;14.85;4.88;;;;;;;7.89;100.00;99168.00;5056194;28;20035;-80
2021/12/28 08:49:41;;;;;;;9.57;4.90;;;;;;;7.91;100.00;99167.88;5057690;28;20033;-77
2021/12/28 08:52:07;;;;;;;12.65;5.20;;;;;;;7.89;100.00;99159.47;5054326;28;20032;-92
2021/12/28 08:54:32;;;;;;;12.68;6.18;;;;;;;7.57;100.00;99114.00;5059131;28;20082;-92
2021/12/28 08:57:00;;;;;;;14.55;5.88;;;;;;;7.96;100.00;99170.91;5054452;28;20423;-94
2021/12/28 08:59:26;;;;;;;12.32;6.60;;;;;;;7.84;100.00;99157.25;5053793;28;20032;-92
2021/12/28 09:01:52;;;;;;;11.07;6.07;;;;;;;7.99;100.00;99170.69;5053875;28;20025;-91
2021/12/28 09:04:18;;;;;;;10.25;5.97;;;;;;;7.99;100.00;99166.34;5058506;28;20048;-92
2021/12/28 09:06:45;;;;;;;11.00;6.47;;;;;;;8.01;100.00;99163.66;5054896;28;20071;-90
2021/12/28 09:09:10;;;;;;;12.20;7.15;;;;;;;7.90;100.00;99136.22;5056075;28;20029;-90
2021/12/28 09:11:36;;;;;;;11.55;6.93;;;;;;;8.05;100.00;99160.69;5053206;28;20097;-93
2021/12/28 09:14:01;;;;;;;13.65;6.38;;;;;;;8.07;100.00;99163.19;5052741;28;20116;-91
2021/12/28 09:16:27;;;;;;;13.02;7.10;;;;;;;8.09;100.00;99152.78;5054735;28;20028;-93
2021/12/28 09:18:52;;;;;;;13.57;7.38;;;;;;;8.10;100.00;99150.06;5053901;28;20484;-94
2021/12/28 09:21:17;;;;;;;12.48;7.75;;;;;;;8.10;100.00;99156.97;5054128;28;20025;-94
2021/12/28 09:23:43;;;;;;;14.43;8.00;;;;;;;8.11;100.00;99151.72;5059513;28;20021;-84
2021/12/28 09:26:08;;;;;;;14.73;7.30;;;;;;;7.95;100.00;99123.00;5052153;28;20102;-78
2021/12/28 09:28:34;;;;;;;12.45;7.97;;;;;;;8.04;100.00;99127.41;5053123;28;20025;-78
2021/12/28 09:31:00;;;;;;;13.68;8.48;;;;;;;8.21;100.00;99144.06;5055677;28;20091;-81
2021/12/28 09:33:25;;;;;;;12.70;8.27;;;;;;;8.07;100.00;99108.38;5056944;28;20393;-87
2021/12/28 09:35:52;;;;;;;14.63;9.32;;;;;;;8.22;100.00;99122.56;5056352;28;20032;-84
2021/12/28 09:38:19;;;;;;;15.20;9.00;;;;;;;8.32;100.00;99131.16;5057196;28;20086;-80
2021/12/28 09:40:46;;;;;;;12.30;8.93;;;;;;;8.35;100.00;99138.66;5058547;28;20085;-82
2021/12/28 09:43:13;;;;;;;13.55;8.73;;;;;;;8.19;100.00;99108.19;5059127;28;20116;-88
2021/12/28 09:45:38;;;;;;;13.27;9.02;;;;;;;8.40;100.00;99125.44;5057432;28;20104;-87
2021/12/28 09:48:04;;;;;;;14.80;9.23;;;;;;;8.43;100.00;99120.03;5061105;28;20044;-85
2021/12/28 09:50:30;;;;;;;15.57;9.02;;;;;;;8.22;100.00;99086.56;5064227;28;20028;-84
2021/12/28 09:52:55;;;;;;;12.77;9.00;;;;;;;8.46;100.00;99127.53;5061351;28;20025;-86
2021/12/28 09:55:23;;;;;;;13.23;9.15;;;;;;;8.44;100.00;99116.53;5062817;28;20017;-83
2021/12/28 09:57:50;;;;;;;13.25;9.65;;;;;;;8.33;100.00;99102.75;5060723;28;20028;-79
2021/12/28 10:00:17;;;;;;;19.77;13.45;;;;;;;8.41;100.00;99114.22;5058219;28;20025;-90
2021/12/28 10:02:43;;;;;;;15.50;11.23;;;;;;;8.41;100.00;99115.03;5057966;28;20033;-92
2021/12/28 10:05:16;;;;;;;15.43;10.30;;;;;;;8.44;100.00;99108.81;5055764;28;20027;-88
2021/12/28 10:07:53;;;;;;;16.50;10.07;;;;;;;8.44;100.00;99098.50;5055229;28;20017;-85
2021/12/28 10:10:18;;;;;;;14.10;9.82;;;;;;;8.54;100.00;99096.81;5106798;23;20056;-92
2021/12/28 10:12:49;;;;;;;14.50;9.70;;;;;;;8.60;100.00;99086.03;5055850;28;20028;-81
2021/12/28 10:15:18;;;;;;;12.93;8.97;;;;;;;8.57;100.00;99076.00;5055632;28;20457;-79
2021/12/28 10:17:46;;;;;;;14.90;9.35;;;;;;;8.66;100.00;99085.53;5054894;28;20032;-81
2021/12/28 10:20:34;;;;;;;11.25;7.80;;;;;;;8.69;100.00;99077.56;5055007;28;20045;-79
2021/12/28 10:23:06;;;;;;;10.55;7.32;;;;;;;8.67;100.00;99079.44;5054746;28;20119;-84
2021/12/28 10:25:35;;;;;;;10.80;7.50;;;;;;;8.63;100.00;99063.44;5055151;28;20139;-83
2021/12/28 10:28:06;;;;;;;10.85;7.45;;;;;;;8.62;100.00;99048.13;5055361;28;20033;-89
2021/12/28 10:30:36;;;;;;;10.82;7.57;;;;;;;8.78;100.00;99065.69;5056716;28;20044;-92
2021/12/28 10:33:05;;;;;;;10.02;7.30;;;;;;;8.63;100.00;99035.13;5054994;28;20104;-84
2021/12/28 10:35:35;;;;;;;9.13;7.30;;;;;;;8.87;100.00;99055.44;5056127;28;20040;-87
2021/12/28 10:38:10;;;;;;;9.50;7.63;;;;;;;8.85;100.00;99036.75;5055817;28;20571;-92
2021/12/28 10:40:44;;;;;;;8.77;7.05;;;;;;;8.77;100.00;99008.25;5054628;28;20081;-87
2021/12/28 10:43:21;;;;;;;8.70;6.60;;;;;;;9.03;100.00;99039.50;5056009;28;20039;-90
2021/12/28 10:46:01;;;;;;;7.85;6.13;;;;;;;9.08;100.00;99036.53;5055062;28;20051;-89
2021/12/28 10:48:49;;;;;;;8.13;6.10;;;;;;;8.97;100.00;99014.28;5055004;28;20060;-92
2021/12/28 10:51:22;;;;;;;9.25;5.03;;;;;;;8.85;100.00;98998.13;5054724;28;20029;-82
2021/12/28 10:54:12;;;;;;;7.47;4.57;;;;;;;9.10;100.00;99027.72;5054770;28;20488;-92
2021/12/28 10:56:47;;;;;;;5.30;3.45;;;;;;;9.12;100.00;99032.75;5055981;28;20028;-88
2021/12/28 10:59:14;;;;;;;6.85;3.85;;;;;;;8.95;100.00;99008.47;5055364;28;20032;-81
2021/12/28 11:01:42;;;;;;;6.72;4.00;;;;;;;8.87;100.00;98992.84;5036804;28;20068;-82
2021/12/28 11:04:13;;;;;;;5.40;3.42;;;;;;;8.89;100.00;98999.50;5054655;28;20036;-87
2021/12/28 11:06:42;;;;;;;7.22;3.80;;;;;;;9.04;100.00;99028.25;5055474;28;20040;-89
2021/12/28 11:09:23;;;;;;;6.78;3.53;;;;;;;8.91;100.00;99013.03;5054294;28;20111;-94
2021/12/28 11:11:51;;;;;;;7.63;3.90;;;;;;;8.97;100.00;99010.91;5054936;28;20033;-92
2021/12/28 11:14:19;;;;;;;8.65;3.70;;;;;;;8.93;100.00;99006.94;5057642;28;20044;-89
2021/12/28 11:16:54;;;;;;;6.93;3.70;;;;;;;8.89;100.00;99002.06;5059694;28;20025;-90
2021/12/28 11:19:25;;;;;;;5.97;4.22;;;;;;;8.89;100.00;98991.75;5060278;28;20044;-85
2021/12/28 11:21:53;;;;;;;8.18;3.70;;;;;;;8.88;100.00;98997.88;5056000;28;20024;-85
2021/12/28 11:24:19;;;;;;;8.63;4.45;;;;;;;8.87;100.00;98992.84;5057190;28;20056;-85
2021/12/28 11:26:50;;;;;;;10.70;4.35;;;;;;;8.85;100.00;98984.44;5057792;28;20040;-82
2021/12/28 11:29:19;;;;;;;7.65;3.80;;;;;;;8.83;100.00;98987.13;5060314;28;20048;-84